D/T METAR WX W/SPE G/SPE TEMP DEWP FEEL
31/01/23 12:55 EGUL 311255Z 29020G23KT 9999 FEW025 SCT040 11/05 A3014 RMK AO2A PK WND 29029/04 SLP210 T01080045 FZRANO $ 23.0mph 26.5mph 10.8°C 4.5°C 9.9°C
31/01/23 11:55 EGUL 311155Z 28016KT 9999 SCT026 BKN039 10/09 A3013 RMK AO2A SLP207 T01030086 10107 20052 55000 FZRANO $ 18.4mph 10.3°C 8.6°C 11.0°C
31/01/23 06:55 EGUL 310655Z 24014KT 9999 SCT046 06/06 A3014 RMK AO2A SLP210 T00560055 FZRANO $ 16.1mph 5.6°C 5.5°C 5.1°C
31/01/23 05:55 EGUL 310555Z 24015KT 9999 CLR 05/05 A3015 RMK AO2A SLP214 60000 T00520048 10056 20023 57015 FZRANO $ 17.3mph 5.2°C 4.8°C 4.4°C
30/01/23 21:55 EGUL 302155Z AUTO 22005KT 9999 CLR 01/01 A3028 RMK AO2 SLP258 T00140013 FZRANO $ 5.8mph 1.4°C 1.3°C -0.4°C
30/01/23 12:55 EGUL 301255Z 30010KT 9999 CLR 09/05 A3022 RMK AO2A SLP237 T00910047 FZRANO $ 11.5mph 9.1°C 4.7°C 8.3°C
30/01/23 11:55 EGUL 301155Z AUTO 30017KT 9999 CLR 09/05 A3020 RMK AO2 SLP230 T00870047 10087 20042 52015 FZRANO $ 19.6mph 8.7°C 4.7°C 7.9°C
30/01/23 10:55 EGUL 301055Z 29016G23KT 9999 CLR 08/05 A3019 RMK AO2A SLP227 T00780046 FZRANO $ 18.4mph 26.5mph 7.8°C 4.6°C 7.0°C
30/01/23 09:55 EGUL 300955Z 28018KT 9999 CLR 07/04 A3017 RMK AO2A SLP220 T00660041 FZRANO $ 20.7mph 6.6°C 4.1°C 5.6°C
30/01/23 07:55 EGUL 300755Z 26011KT 9999 CLR 04/02 A3014 RMK AO2A SLP210 T00420024 FZRANO $ 12.7mph 4.2°C 2.4°C 2.7°C
30/01/23 06:55 EGUL 300655Z 27011KT 9999 FEW040 05/03 A3013 RMK AO2A SLP207 T00480025 FZRANO $ 12.7mph 4.8°C 2.5°C 3.3°C
09/01/23 05:55 EGUL 090555Z 24009KT 9999 SCT050 04/04 A2930 RMK AO2A SLP926 T00400039 10044 20029 52026 $ 10.4mph 4°C 3.9°C 2.9°C
09/01/23 04:55 EGUL 090455Z 24007KT 9999 SCT050 04/04 A2927 RMK AO2A SLP915 T00400039 $ 8.1mph 4°C 3.9°C 2.9°C
09/01/23 03:55 EGUL 090355Z AUTO 24008KT 9999 FEW035 03/03 A2925 RMK AO2 SLP909 T00340033 $ 9.2mph 3.4°C 3.3°C 2.1°C
09/01/23 02:55 EGUL 090255Z AUTO 24007KT 9999 OVC037 04/04 A2922 RMK AO2 SLP899 T00430042 52015 $ 8.1mph 4.3°C 4.2°C 3.3°C
09/01/23 01:50 EGUL 090150Z AUTO 17004KT 9999 SCT032 04/04 A2920 RMK AO2 SLP892 $ 4.6mph 4°C 4°C 3.0°C
09/01/23 00:55 EGUL 090055Z AUTO 19003KT 9999 BKN041 04/04 A2919 RMK AO2 SLP888 T00410040 $ 3.5mph 4.1°C 4°C 3.1°C
08/01/23 23:55 EGUL 082355Z AUTO 17006KT 9999 BKN036 BKN049 04/04 A2918 RMK AO2 SLP885 60013 T00400039 10070 20035 400910035 50000 $ 6.9mph 4°C 3.9°C 2.9°C
08/01/23 22:55 EGUL 082255Z AUTO 18007KT 9999 CLR 04/04 A2917 RMK AO2 SLP882 T00390038 $ 8.1mph 3.9°C 3.8°C 2.8°C
08/01/23 21:55 EGUL 082155Z AUTO 20007KT 9999 CLR 04/04 A2918 RMK AO2 SLP885 T00440043 $ 8.1mph 4.4°C 4.3°C 3.5°C
08/01/23 19:55 EGUL 081955Z AUTO 22008KT 9999 FEW036 SCT070 BKN085 05/05 A2918 RMK AO2 RAE1859 SLP885 P0000 T00510050 $ 9.2mph 5.1°C 5°C 4.4°C
08/01/23 19:24 EGUL 081924Z AUTO 22012KT 9999 FEW014 FEW019 SCT024 SCT031 BKN049 05/05 A2917 RMK AO2 RAE1859 SLP882 $ 13.8mph 5°C 5°C 4.3°C
08/01/23 19:09 EGUL 081909Z AUTO 22011KT 9999 FEW019 SCT024 BKN032 05/05 A2917 RMK AO2 RAE1859 SLP882 $ 12.7mph 5°C 5°C 4.3°C
08/01/23 18:17 EGUL 081817Z AUTO 22019G24KT 9999 -RA FEW015 BKN025 06/06 A2917 RMK AO2 RAE01RAB02 CIG 023V060 SLP882 $ -RA 21.9mph 27.6mph 6°C 6°C 5.6°C
08/01/23 16:55 EGUL 081655Z AUTO 20009KT 9999 FEW032 SCT100 07/07 A2916 RMK AO2 SLP878 T00710065 $ 10.4mph 7.1°C 6.5°C 6.9°C
08/01/23 15:55 EGUL 081555Z AUTO 19013KT 9999 CLR 07/06 A2916 RMK AO2 RAE17 SLP878 P0001 T00700059 $ 15.0mph 7°C 5.9°C 6.6°C
08/01/23 15:17 EGUL 081517Z AUTO 18016G24KT 9999 SCT027 SCT100 07/07 A2916 RMK AO2 RAE17 SLP878 $ 18.4mph 27.6mph 7°C 7°C 7.0°C
08/01/23 14:29 EGUL 081429Z AUTO 19010KT 9999 -RA BKN027 BKN033 07/06 A2919 RMK AO2 RAE02RAB19 CIG 027V032 BKN027 V SCT SLP888 $ -RA 11.5mph 7°C 6°C 6.6°C
08/01/23 14:17 EGUL 081417Z AUTO 19012KT 9999 BKN030 07/06 A2920 RMK AO2 RAE02 SLP892 $ 13.8mph 7°C 6°C 6.6°C
08/01/23 13:42 EGUL 081342Z AUTO 20015G21KT 9999 -RA FEW035 SCT050 08/06 A2921 RMK AO2 RAE10RAB22E29RAB42 SLP895 $ -RA 17.3mph 24.2mph 8°C 6°C 7.6°C
08/01/23 13:10 EGUL 081310Z AUTO 20011KT 9999 BKN027 07/07 A2922 RMK AO2 RAE10 BKN V OVC PRESFR SLP898 $ 12.7mph 7°C 7°C 7.0°C
08/01/23 12:41 EGUL 081241Z AUTO 22016G19KT 9999 RA BKN026 BKN037 08/07 A2924 RMK AO2 RAB11 CIG 026V037 SLP905 $ RA 18.4mph 21.9mph 8°C 7°C 8.0°C
08/01/23 12:11 EGUL 081211Z AUTO 19015G20KT 9999 -RA FEW020 SCT027 08/07 A2926 RMK AO2 RAB11 SLP912 $ -RA 17.3mph 23.0mph 8°C 7°C 8.0°C
08/01/23 10:55 EGUL 081055Z AUTO 19012KT 9999 FEW050 08/07 A2929 RMK AO2 SLP922 T00820065 $ 13.8mph 8.2°C 6.5°C 8.0°C
08/01/23 09:55 EGUL 080955Z AUTO 19011KT 9999 CLR 08/06 A2931 RMK AO2 SLP929 T00750058 $ 12.7mph 7.5°C 5.8°C 7.1°C
08/01/23 08:55 EGUL 080855Z AUTO 19011KT 9999 CLR 07/05 A2932 RMK AO2 SLP932 T00660051 58006 $ 12.7mph 6.6°C 5.1°C 5.9°C
08/01/23 07:55 EGUL 080755Z AUTO 20012G21KT 9999 CLR 07/05 A2933 RMK AO2 SLP936 T00680050 $ 13.8mph 24.2mph 6.8°C 5°C 6.1°C
08/01/23 06:55 EGUL 080655Z AUTO 20012KT 9999 CLR 07/05 A2934 RMK AO2 SLP939 T00710051 $ 13.8mph 7.1°C 5.1°C 6.4°C
08/01/23 05:55 EGUL 080555Z AUTO 21016G21KT 9999 FEW046 08/05 A2934 RMK AO2 SLP939 T00750046 10080 20071 57010 $ 18.4mph 24.2mph 7.5°C 4.6°C 6.7°C
08/01/23 04:55 EGUL 080455Z AUTO 21014G22KT 9999 CLR 08/06 A2935 RMK AO2 SLP942 T00800058 $ 16.1mph 25.3mph 8°C 5.8°C 7.6°C
08/01/23 03:55 EGUL 080355Z AUTO 19014KT 9999 CLR 08/06 A2936 RMK AO2 SLP946 T00760061 $ 16.1mph 7.6°C 6.1°C 7.3°C
08/01/23 02:55 EGUL 080255Z AUTO 19014KT 9999 CLR 08/06 A2937 RMK AO2 SLP949 T00770062 57005 $ 16.1mph 7.7°C 6.2°C 7.4°C
08/01/23 01:55 EGUL 080155Z AUTO 20010KT 9999 CLR 07/06 A2938 RMK AO2 SLP953 T00740057 $ 11.5mph 7.4°C 5.7°C 6.9°C
08/01/23 00:55 EGUL 080055Z AUTO 19012KT 9999 CLR 07/05 A2938 RMK AO2 SLP953 T00710052 $ 13.8mph 7.1°C 5.2°C 6.5°C
07/01/23 23:55 EGUL 072355Z AUTO 21014KT 9999 CLR 08/05 A2939 RMK AO2 SLP956 60001 T00750053 10103 20070 401240070 50001 $ 16.1mph 7.5°C 5.3°C 6.9°C
07/01/23 22:55 EGUL 072255Z AUTO 21013G20KT 9999 CLR 07/05 A2939 RMK AO2 SLP956 T00710051 $ 15.0mph 23.0mph 7.1°C 5.1°C 6.4°C
07/01/23 21:55 EGUL 072155Z AUTO 21012KT 9999 CLR 07/05 A2939 RMK AO2 SLP956 T00700050 $ 13.8mph 7°C 5°C 6.3°C
07/01/23 20:55 EGUL 072055Z AUTO 22014KT 9999 CLR 08/05 A2938 RMK AO2 SLP953 60001 T00760054 52017 FZRANO $ 16.1mph 7.6°C 5.4°C 7.0°C
07/01/23 19:55 EGUL 071955Z AUTO 23014KT 9999 CLR 08/06 A2936 RMK AO2 PK WND 21031/1856 RAE07 SLP946 P0001 T00820062 FZRANO $ 16.1mph 8.2°C 6.2°C 7.9°C
07/01/23 19:12 EGUL 071912Z AUTO 23018G25KT 9999 FEW026 BKN033 BKN042 08/06 A2935 RMK AO2 RAE07 SLP942 FZRANO $ 20.7mph 28.8mph 8°C 6°C 7.6°C
07/01/23 18:44 EGUL 071844Z AUTO 24022G28KT 9999 -RA BKN025 BKN032 09/07 A2934 RMK AO2 RAE04RAB34 CIG 023V033 SLP939 FZRANO $ -RA 25.3mph 32.2mph 9°C 7°C 9.0°C
07/01/23 18:04 EGUL 071804Z AUTO 20013G20KT 9999 FEW037 SCT049 10/09 A2933 RMK AO2 RAE04 SLP936 FZRANO $ 15.0mph 23.0mph 10°C 9°C 10.8°C
07/01/23 17:46 EGUL 071746Z AUTO 20011KT 9999 -RA FEW047 SCT070 11/09 A2934 RMK AO2 RAB46 SLP939 FZRANO $ -RA 12.7mph 11°C 9°C 11.8°C
07/01/23 16:55 EGUL 071655Z AUTO 19011KT 9999 FEW048 10/10 A2934 RMK AO2 SLP939 T01040098 FZRANO $ 12.7mph 10.4°C 9.8°C 11.6°C
07/01/23 16:25 EGUL 071625Z AUTO 19013KT 9999 SCT020 BKN044 10/10 A2935 RMK AO2 SLP942 FZRANO $ 15.0mph 10°C 10°C 11.3°C
07/01/23 16:15 EGUL 071615Z AUTO 20012KT 9999 FEW014 BKN019 OVC046 10/10 A2936 RMK AO2 CIG 017V046 BKN V SCT CIG 017 RWY06 SLP946 FZRANO $ 13.8mph 10°C 10°C 11.3°C
07/01/23 15:35 EGUL 071535Z AUTO 19013G20KT 9999 BKN014 OVC020 11/10 A2937 RMK AO2 SLP949 FZRANO $ 15.0mph 23.0mph 11°C 10°C 12.3°C
07/01/23 14:55 EGUL 071455Z AUTO 18015KT 9999 OVC016 11/10 A2938 RMK AO2 SLP953 T01070099 57028 FZRANO $ 17.3mph 10.7°C 9.9°C 11.9°C
07/01/23 13:55 EGUL 071355Z AUTO 18015KT 9999 BKN017 OVC025 11/10 A2939 RMK AO2 BKN V OVC SLP956 T01070101 FZRANO $ 17.3mph 10.7°C 10.1°C 12.0°C
07/01/23 13:05 EGUL 071305Z AUTO 18016G21KT 9999 BKN016 BKN023 10/10 A2942 RMK AO2 SLP966 FZRANO $ 18.4mph 24.2mph 10°C 10°C 11.3°C
07/01/23 11:55 EGUL 071155Z AUTO 18015G25KT 9999 OVC013 10/09 A2946 RMK AO2 RAB06E20 SLP980 P0000 60000 T00960094 10115 20092 57020 FZRANO $ 17.3mph 28.8mph 9.6°C 9.4°C 10.6°C
07/01/23 11:20 EGUL 071120Z AUTO 17016G25KT 9999 BKN013 OVC019 09/09 A2947 RMK AO2 RAB06E20 SLP983 FZRANO $ 18.4mph 28.8mph 9°C 9°C 9.8°C
07/01/23 11:11 EGUL 071111Z AUTO 17018G25KT 9999 -RA BKN015 OVC021 09/09 A2948 RMK AO2 RAB06 CIG 013V018 CIG 013 RWY06 SLP986 $ -RA 20.7mph 28.8mph 9°C 9°C 9.8°C
07/01/23 10:45 EGUL 071045Z AUTO 17019G25KT 9999 BKN021 OVC026 10/09 A2949 RMK AO2 RAB35E45 CIG 019 RWY06 SLP990 $ 21.9mph 28.8mph 10°C 9°C 10.8°C
07/01/23 09:55 EGUL 070955Z AUTO 18019G28KT 9999 BKN026 10/08 A2950 RMK AO2 PK WND 18030/0857 RAB18E27RAB42E52 BKN V OVC SLP993 P0000 T01010080 $ 21.9mph 32.2mph 10.1°C 8°C 10.5°C
07/01/23 09:42 EGUL 070942Z AUTO 18020G29KT 9999 -RA OVC026 10/08 A2950 RMK AO2 RAB18E27RAB42 SLP993 $ -RA 23.0mph 33.4mph 10°C 8°C 10.4°C
07/01/23 09:18 EGUL 070918Z AUTO 17022G28KT 9999 -RA BKN028 OVC070 10/08 A2951 RMK AO2 RAB18 SLP997 $ -RA 25.3mph 32.2mph 10°C 8°C 10.4°C
07/01/23 07:55 EGUL 070755Z AUTO 18020G29KT 9999 SCT046 SCT060 BKN100 11/08 A2955 RMK AO2 PK WND 16032/28 SLP010 T01080080 $ 23.0mph 33.4mph 10.8°C 8°C 11.2°C
07/01/23 06:55 EGUL 070655Z AUTO 18016G29KT 9999 FEW026 FEW032 BKN050 11/09 A2957 RMK AO2 PK WND 20029/48 SLP017 T01110085 $ 18.4mph 33.4mph 11.1°C 8.5°C 11.7°C
07/01/23 05:55 EGUL 070555Z AUTO 19020G32KT 9999 BKN033 12/09 A2960 RMK AO2 PK WND 19032/49 SLP027 T01160092 10124 20115 57026 $ 23.0mph 36.8mph 11.6°C 9.2°C 12.5°C
07/01/23 04:55 EGUL 070455Z AUTO 19017G26KT 9999 FEW027 OVC039 12/10 A2963 RMK AO2 PK WND 18029/46 SLP037 T01220097 $ 19.6mph 29.9mph 12.2°C 9.7°C 13.3°C
07/01/23 03:55 EGUL 070355Z AUTO 19016G21KT 9999 BKN036 BKN160 12/10 A2965 RMK AO2 SLP044 T01210100 $ 18.4mph 24.2mph 12.1°C 10°C 13.4°C
07/01/23 02:55 EGUL 070255Z AUTO 19016G22KT 9999 SCT039 SCT170 12/10 A2967 RMK AO2 SLP051 T01200102 57026 $ 18.4mph 25.3mph 12°C 10.2°C 13.4°C
07/01/23 01:55 EGUL 070155Z AUTO 20017G21KT 9999 FEW046 BKN150 12/11 A2970 RMK AO2 PK WND 18028/16 SLP061 T01200106 $ 19.6mph 24.2mph 12°C 10.6°C 13.6°C
07/01/23 00:55 EGUL 070055Z AUTO 20016G25KT 9999 SCT042 BKN150 12/11 A2972 RMK AO2 PK WND 19026/13 SLP068 T01240106 $ 18.4mph 28.8mph 12.4°C 10.6°C 14.0°C
06/01/23 23:55 EGUL 062355Z AUTO 21018G24KT 9999 FEW038 SCT160 12/11 A2975 RMK AO2 SLP078 T01230107 10126 20088 401260066 57018 $ 20.7mph 27.6mph 12.3°C 10.7°C 13.9°C
06/01/23 23:15 EGUL 062315Z AUTO 21015KT 9999 SCT023 OVC034 13/11 A2976 RMK AO2 SLP081 $ 17.3mph 13°C 11°C 14.8°C
06/01/23 22:20 EGUL 062220Z AUTO 21013G21KT 9999 BKN032 12/11 A2978 RMK AO2 SLP088 $ 15.0mph 24.2mph 12°C 11°C 13.8°C
06/01/23 21:55 EGUL 062155Z AUTO 21014G21KT 9999 FEW020 SCT180 12/11 A2978 RMK AO2 SLP088 T01220111 $ 16.1mph 24.2mph 12.2°C 11.1°C 14.0°C
06/01/23 21:45 EGUL 062145Z AUTO 20014G19KT 9999 SCT021 SCT028 BKN180 12/11 A2978 RMK AO2 SLP088 $ 16.1mph 21.9mph 12°C 11°C 13.8°C
06/01/23 21:05 EGUL 062105Z AUTO 20011KT 9999 OVC025 12/11 A2980 RMK AO2 SLP095 $ 12.7mph 12°C 11°C 13.8°C
06/01/23 20:50 EGUL 062050Z AUTO 20010KT 9999 SCT021 OVC027 11/11 A2980 RMK AO2 CIG 021V027 OVC V BKN SLP095 $ 11.5mph 11°C 11°C 12.8°C
06/01/23 19:55 EGUL 061955Z AUTO 19010KT 9999 BKN012 BKN019 BKN046 10/10 A2982 RMK AO2 CIG 012V020 SLP102 T01030101 $ 11.5mph 10.3°C 10.1°C 11.6°C
06/01/23 19:15 EGUL 061915Z AUTO 17009KT 9999 BKN022 BKN027 BKN035 10/10 A2983 RMK AO2 CIG 022V028 BKN022 V SCT SLP105 $ 10.4mph 10°C 10°C 11.3°C
06/01/23 17:55 EGUL 061755Z AUTO 19010KT 9999 FEW022 BKN170 09/08 A2986 RMK AO2 SLP115 T00890078 10097 20087 56011 $ 11.5mph 8.9°C 7.8°C 9.2°C
06/01/23 16:55 EGUL 061655Z AUTO 17009KT 9999 FEW170 09/07 A2986 RMK AO2 SLP115 T00890072 $ 10.4mph 8.9°C 7.2°C 9.0°C
06/01/23 15:55 EGUL 061555Z 19011KT 9999 SCT030 BKN150 09/07 A2987 RMK AO2A SLP119 T00890072 $ 12.7mph 8.9°C 7.2°C 9.0°C
06/01/23 14:55 EGUL 061455Z 21009KT 9999 SCT030 BKN160 09/07 A2989 RMK AO2A SLP125 T00940073 57011 $ 10.4mph 9.4°C 7.3°C 9.5°C
06/01/23 13:55 EGUL 061355Z 22011KT 9999 SCT045 BKN180 09/07 A2991 RMK AO2A SLP132 T00930072 $ 12.7mph 9.3°C 7.2°C 9.4°C
06/01/23 12:55 EGUL 061255Z AUTO 22015KT 9999 CLR 10/07 A2991 RMK AO2 SLP132 T00950073 $ 17.3mph 9.5°C 7.3°C 9.6°C
06/01/23 11:55 EGUL 061155Z AUTO 23016KT 9999 CLR 09/07 A2992 RMK AO2 SLP135 70005 T00880074 10089 20066 58006 $ 18.4mph 8.8°C 7.4°C 9.0°C
06/01/23 10:55 EGUL 061055Z 22012KT 9999 FEW170 08/07 A2993 RMK AO2A SLP139 T00840072 $ 13.8mph 8.4°C 7.2°C 8.5°C
06/01/23 09:55 EGUL 060955Z 22010KT 9999 SCT200 BKN230 07/07 A2994 RMK AO2A SLP142 T00730067 $ 11.5mph 7.3°C 6.7°C 7.2°C
06/01/23 08:55 EGUL 060855Z 23012KT 9999 SCT200 07/07 A2994 RMK AO2A SLP142 T00710067 52017 $ 13.8mph 7.1°C 6.7°C 7.0°C
06/01/23 07:55 EGUL 060755Z 23012KT 9999 CLR 07/06 A2992 RMK AO2A SLP136 T00670063 $ 13.8mph 6.7°C 6.3°C 6.4°C
06/01/23 06:55 EGUL 060655Z 23016KT 9999 CLR 07/06 A2990 RMK AO2A SLP129 T00660063 $ 18.4mph 6.6°C 6.3°C 6.3°C